Time;durP1;ratioP1;P1;durP2;ratioP2;P2;SDS_P1;SDS_P2;PMS_P1;PMS_P2;Temp;Humidity;BMP_temperature;BMP_pressure;BME280_temperature;BME280_humidity;BME280_pressure;Samples;Min_cycle;Max_cycle;Signal;HPM_P1;HPM_P2
2023/01/26 00:02:06;;;;;;;;;71.33;48.00;;;;;3.19;85.58;102235.47;5138421;27;45520;-65
2023/01/26 00:04:32;;;;;;;;;66.33;47.67;;;;;3.19;85.20;102228.53;5139820;27;45500;-65
2023/01/26 00:06:57;;;;;;;;;72.67;50.33;;;;;2.96;84.54;102186.16;5125443;27;45392;-65
2023/01/26 00:09:22;;;;;;;;;70.33;50.67;;;;;3.21;85.76;102232.09;5118961;27;45375;-65
2023/01/26 00:11:48;;;;;;;;;70.00;50.33;;;;;3.23;85.06;102230.41;5119121;27;45214;-65
2023/01/26 00:14:13;;;;;;;;;71.00;53.67;;;;;3.14;85.39;102219.72;5117765;27;46479;-65
2023/01/26 00:16:38;;;;;;;;;69.33;50.00;;;;;3.20;85.63;102222.50;5120497;27;45321;-65
2023/01/26 00:19:04;;;;;;;;;69.33;48.67;;;;;3.21;86.29;102219.06;5139762;27;45388;-65
2023/01/26 00:21:29;;;;;;;;;62.33;46.00;;;;;3.25;84.33;102218.34;5139678;27;45851;-65
2023/01/26 00:23:54;;;;;;;;;72.67;50.33;;;;;3.23;84.96;102208.69;5125810;27;45516;-65
2023/01/26 00:26:23;;;;;;;;;73.00;50.33;;;;;3.23;86.19;102216.50;5118767;27;45420;-66
2023/01/26 00:28:49;;;;;;;;;70.67;49.33;;;;;3.20;86.00;102211.22;5118928;27;45426;-65
2023/01/26 00:31:19;;;;;;;;;72.00;43.67;;;;;3.26;84.37;102217.47;5119113;27;45230;-65
2023/01/26 00:33:45;;;;;;;;;61.00;42.00;;;;;3.25;84.91;102212.22;5116015;27;45526;-65
2023/01/26 00:36:11;;;;;;;;;58.00;40.33;;;;;2.97;85.30;102167.13;5118675;27;45464;-65
2023/01/26 00:38:36;;;;;;;;;65.33;44.67;;;;;3.08;85.85;102186.56;5118829;27;45291;-65
2023/01/26 00:41:02;;;;;;;;;70.33;49.00;;;;;2.83;85.53;102158.00;5118719;27;45445;-65
2023/01/26 00:43:27;;;;;;;;;62.33;50.67;;;;;3.12;85.84;102196.25;5118702;27;45991;-65
2023/01/26 00:45:53;;;;;;;;;65.00;51.67;;;;;3.17;86.08;102198.09;5118625;27;45620;-65
2023/01/26 00:48:18;;;;;;;;;73.67;51.00;;;;;3.13;85.90;102200.59;5118484;27;45409;-66
2023/01/26 00:50:43;;;;;;;;;68.33;49.33;;;;;3.14;85.78;102197.16;5126093;27;45417;-65
2023/01/26 00:53:09;;;;;;;;;71.67;53.33;;;;;3.16;86.08;102194.59;5139117;27;46388;-66
2023/01/26 00:55:34;;;;;;;;;64.00;45.00;;;;;3.12;84.72;102182.31;5139195;27;45445;-66
2023/01/26 00:58:02;;;;;;;;;70.33;48.33;;;;;3.14;84.73;102186.75;5123387;27;45408;-65
2023/01/26 01:00:28;;;;;;;;;63.67;46.00;;;;;2.90;86.79;102152.16;5137548;27;45182;-66
2023/01/26 01:02:55;;;;;;;;;77.33;48.67;;;;;3.09;86.42;102175.34;5138668;27;46527;-66
2023/01/26 01:05:21;;;;;;;;;69.67;49.67;;;;;3.03;89.00;102163.84;5139077;27;45351;-66
2023/01/26 01:07:47;;;;;;;;;64.33;42.67;;;;;3.06;86.07;102169.13;5139144;27;45471;-66
2023/01/26 01:10:12;;;;;;;;;63.33;43.00;;;;;2.98;87.07;102161.09;5138971;27;45393;-66
2023/01/26 01:12:37;;;;;;;;;72.00;46.67;;;;;3.04;87.35;102176.88;5139065;27;45597;-66
2023/01/26 01:15:03;;;;;;;;;61.00;41.33;;;;;3.07;86.25;102171.78;5121836;27;45547;-66
2023/01/26 01:17:28;;;;;;;;;62.67;44.33;;;;;2.98;88.17;102161.09;5117911;27;45418;-66
2023/01/26 01:19:54;;;;;;;;;57.67;41.67;;;;;3.00;89.55;102169.81;5118270;27;45332;-66
2023/01/26 01:22:19;;;;;;;;;58.33;44.00;;;;;3.00;89.15;102162.00;5117896;27;45587;-66
2023/01/26 01:24:44;;;;;;;;;62.67;45.00;;;;;2.99;91.38;102159.38;5118136;27;45413;-66
2023/01/26 01:27:09;;;;;;;;;60.33;45.33;;;;;3.04;91.87;102168.22;5118246;27;45437;-66
2023/01/26 01:29:35;;;;;;;;;61.00;44.67;;;;;3.00;93.11;102148.13;5118307;27;45488;-66
2023/01/26 01:32:00;;;;;;;;;49.67;38.00;;;;;3.12;88.83;102167.63;5117616;27;47516;-66
2023/01/26 01:34:25;;;;;;;;;64.33;43.00;;;;;3.14;90.56;102172.88;5117718;27;45707;-66
2023/01/26 01:36:51;;;;;;;;;60.67;43.00;;;;;3.16;88.48;102168.56;5117945;27;45436;-66
2023/01/26 01:39:16;;;;;;;;;64.67;39.00;;;;;3.01;87.44;102147.31;5126963;27;45560;-66
2023/01/26 01:41:41;;;;;;;;;58.33;39.33;;;;;3.10;88.62;102171.88;5138679;27;46519;-66
2023/01/26 01:44:34;;;;;;;;;60.33;37.33;;;;;3.14;90.42;102173.75;5139708;27;45416;-66
2023/01/26 01:47:01;;;;;;;;;58.00;42.00;;;;;3.14;87.82;102173.75;5138884;27;45253;-66
2023/01/26 01:49:48;;;;;;;;;49.00;34.67;;;;;2.87;87.54;102131.25;5123472;27;45399;-65
2023/01/26 01:52:25;;;;;;;;;48.67;40.67;;;;;3.12;87.87;102170.22;5122331;27;47198;-66
2023/01/26 01:54:55;;;;;;;;;57.00;39.00;;;;;3.15;88.81;102164.19;5119994;27;45416;-66
2023/01/26 01:57:43;;;;;;;;;49.67;39.33;;;;;3.15;89.47;102153.78;5121281;27;45270;-66
2023/01/26 02:00:13;;;;;;;;;46.33;37.00;;;;;3.25;86.83;102163.69;5121443;27;45396;-66
2023/01/26 02:02:43;;;;;;;;;59.33;41.33;;;;;3.24;90.14;102166.19;5099554;27;45320;-66
2023/01/26 02:05:31;;;;;;;;;50.67;37.33;;;;;3.20;89.74;102160.03;5106174;27;45232;-66
2023/01/26 02:07:57;;;;;;;;;59.67;38.33;;;;;3.16;88.57;102154.69;5121042;27;45421;-66
2023/01/26 02:10:23;;;;;;;;;56.67;40.33;;;;;2.99;89.67;102115.13;5121158;27;45341;-65
2023/01/26 02:12:55;;;;;;;;;59.33;39.33;;;;;3.21;88.13;102154.00;5120910;27;47111;-66
2023/01/26 02:15:21;;;;;;;;;56.33;38.33;;;;;3.21;87.38;102146.19;5120718;27;45335;-66
2023/01/26 02:17:46;;;;;;;;;54.00;41.00;;;;;3.25;87.11;102161.06;5121027;27;45423;-66
2023/01/26 02:20:17;;;;;;;;;49.00;37.33;;;;;3.26;87.66;102168.03;5121016;27;45402;-66
2023/01/26 02:22:50;;;;;;;;;55.67;36.33;;;;;3.24;87.10;102171.41;5120559;27;46087;-66
2023/01/26 02:25:36;;;;;;;;;47.33;36.33;;;;;3.24;85.95;102153.19;5119594;27;45486;-66
2023/01/26 02:28:01;;;;;;;;;61.00;41.33;;;;;3.18;85.77;102140.91;5120689;27;45429;-66
2023/01/26 02:30:27;;;;;;;;;52.33;41.00;;;;;3.19;87.77;102160.84;5120792;27;45389;-66
2023/01/26 02:32:53;;;;;;;;;59.00;42.00;;;;;3.18;87.05;102158.22;5120708;27;45440;-66
2023/01/26 02:35:18;;;;;;;;;57.00;40.67;;;;;3.18;87.58;102151.31;5120580;27;45406;-66
2023/01/26 02:37:44;;;;;;;;;56.33;40.33;;;;;3.24;87.19;102164.50;5120854;27;45226;-66
2023/01/26 02:40:24;;;;;;;;;50.67;37.33;;;;;3.29;88.46;102162.03;5119913;27;45618;-66
2023/01/26 02:42:53;;;;;;;;;61.33;41.00;;;;;3.32;87.55;102154.31;5120383;27;47478;-66
2023/01/26 02:45:20;;;;;;;;;46.33;35.67;;;;;3.40;85.88;102159.72;5120561;27;45239;-66
2023/01/26 02:47:45;;;;;;;;;54.67;37.67;;;;;3.25;87.62;102131.53;5120806;27;45524;-66
2023/01/26 02:50:11;;;;;;;;;44.00;37.67;;;;;3.39;88.15;102148.44;5120272;27;45398;-66
2023/01/26 02:52:37;;;;;;;;;57.00;41.67;;;;;3.36;87.17;102156.16;5120464;27;46662;-66
2023/01/26 02:55:21;;;;;;;;;39.00;31.67;;;;;3.40;85.61;102149.31;5119787;27;45383;-66
2023/01/26 02:57:52;;;;;;;;;38.67;36.00;;;;;3.38;86.37;102151.00;5130333;27;45248;-65
2023/01/26 03:00:21;;;;;;;;;47.00;34.67;;;;;3.37;87.05;102138.81;5141237;27;45247;-66
2023/01/26 03:02:49;;;;;;;;;38.67;30.67;;;;;3.47;84.88;102139.16;5140896;27;47081;-66
2023/01/26 03:05:14;;;;;;;;;47.33;36.67;;;;;3.27;84.64;102119.47;5140706;27;45342;-66
2023/01/26 03:07:40;;;;;;;;;55.33;37.33;;;;;3.35;87.17;102146.59;5141053;27;45459;-66
2023/01/26 03:10:06;;;;;;;;;40.33;34.33;;;;;3.29;87.07;102126.47;5141131;27;45360;-66
2023/01/26 03:12:31;;;;;;;;;55.33;40.00;;;;;3.40;87.09;102155.44;5138525;27;46682;-66
2023/01/26 03:17:41;;;;;;;;;46.67;35.33;;;;;3.37;87.34;102155.34;5141048;27;45228;-66
2023/01/26 03:28:21;;;;;;;;;47.33;37.67;;;;;3.34;86.46;102137.03;5140695;27;45330;-66
2023/01/26 03:30:50;;;;;;;;;59.00;37.33;;;;;3.44;85.51;102156.38;5127744;27;45496;-66
2023/01/26 03:33:17;;;;;;;;;54.33;32.67;;;;;3.43;85.97;102158.13;5117812;27;46106;-66
2023/01/26 03:35:43;;;;;;;;;53.00;36.00;;;;;3.43;86.35;102152.91;5119671;27;45436;-66
2023/01/26 03:38:08;;;;;;;;;42.67;35.67;;;;;3.44;85.66;102151.19;5130994;27;45495;-66
2023/01/26 03:56:59;;;;;;;;;56.67;40.00;;;;;3.43;85.93;102147.72;5131371;27;45496;-66
2023/01/26 03:59:36;;;;;;;;;41.33;34.33;;;;;3.45;86.76;102143.41;5140065;27;45576;-66
2023/01/26 04:10:17;;;;;;;;;57.00;38.67;;;;;3.36;86.79;102122.31;5118915;27;45413;-66
2023/01/26 04:12:42;;;;;;;;;33.00;31.33;;;;;3.50;87.26;102133.16;5126970;27;45309;-66
2023/01/26 04:23:20;;;;;;;;;54.67;39.00;;;;;3.51;86.03;102132.28;5119118;27;45363;-66
2023/01/26 04:25:46;;;;;;;;;54.67;41.67;;;;;3.46;86.48;102124.34;5118773;27;46134;-66
2023/01/26 04:28:11;;;;;;;;;56.00;38.67;;;;;3.56;86.72;102127.22;5117528;27;45403;-66
2023/01/26 04:30:37;;;;;;;;;50.00;40.00;;;;;3.42;85.80;102111.22;5118919;27;45283;-66
2023/01/26 04:33:03;;;;;;;;;54.33;34.33;;;;;3.52;85.75;102128.88;5119108;27;45609;-66
2023/01/26 04:35:29;;;;;;;;;39.67;34.33;;;;;3.41;86.32;102125.06;5118336;27;45520;-66
2023/01/26 04:37:54;;;;;;;;;60.67;44.33;;;;;3.44;86.98;102132.97;5118626;27;45437;-66
2023/01/26 04:40:19;;;;;;;;;46.33;37.00;;;;;3.49;85.73;102121.84;5118906;27;45384;-66
2023/01/26 04:42:45;;;;;;;;;54.33;37.67;;;;;3.41;85.86;102125.06;5119190;27;45428;-66
2023/01/26 04:45:11;;;;;;;;;56.33;36.00;;;;;3.29;87.81;102115.19;5117168;27;46605;-66
2023/01/26 04:47:36;;;;;;;;;49.33;37.00;;;;;3.33;88.13;102105.75;5118211;27;45322;-66
2023/01/26 04:50:02;;;;;;;;;56.00;40.00;;;;;3.48;87.58;102114.84;5118461;27;45460;-66
2023/01/26 04:52:27;;;;;;;;;41.00;34.00;;;;;3.62;87.84;102124.81;5118769;27;45316;-66
2023/01/26 04:54:53;;;;;;;;;47.33;37.67;;;;;3.55;87.48;102105.50;5118367;27;45449;-66
2023/01/26 04:57:23;;;;;;;;;48.33;38.00;;;;;3.67;87.30;102120.59;5118349;27;45618;-66
2023/01/26 04:59:49;;;;;;;;;58.33;40.00;;;;;3.76;86.99;102127.78;5118526;27;45427;-66
2023/01/26 05:02:14;;;;;;;;;50.00;38.00;;;;;3.72;86.69;102121.63;5119819;27;45528;-66
2023/01/26 05:04:39;;;;;;;;;62.00;48.00;;;;;3.75;85.30;102111.28;5117549;27;46826;-66
2023/01/26 05:07:04;;;;;;;;;54.33;40.00;;;;;3.66;85.49;102114.50;5115923;27;45493;-66
2023/01/26 05:09:30;;;;;;;;;52.67;37.33;;;;;3.46;86.55;102100.94;5137957;27;45614;-66
2023/01/26 05:12:32;;;;;;;;;50.33;36.67;;;;;3.54;87.43;102134.97;5133480;27;45810;-66
2023/01/26 05:14:40;;;;;;;;;54.33;34.00;;;;;3.54;87.44;102121.97;5117862;27;45416;-66
2023/01/26 05:17:06;;;;;;;;;52.33;32.33;;;;;3.50;87.45;102120.13;5118398;27;45456;-66
2023/01/26 05:19:31;;;;;;;;;68.33;48.67;;;;;3.50;88.12;102114.94;5117755;27;45226;-66
2023/01/26 05:21:56;;;;;;;;;54.00;36.67;;;;;3.60;87.54;102119.56;5118460;27;45472;-66
2023/01/26 05:24:22;;;;;;;;;43.67;37.33;;;;;3.68;87.41;102119.75;5120179;27;45587;-66
2023/01/26 05:27:19;;;;;;;;;44.67;32.67;;;;;3.74;87.86;102122.53;5138940;27;45358;-66
2023/01/26 05:29:32;;;;;;;;;48.00;29.00;;;;;3.79;87.14;102122.66;5127966;27;46031;-66
2023/01/26 05:31:57;;;;;;;;;50.67;33.67;;;;;3.84;87.00;102137.56;5118202;27;45541;-66
2023/01/26 05:34:23;;;;;;;;;35.67;30.67;;;;;3.87;87.12;102139.38;5117892;27;46097;-66
2023/01/26 05:36:48;;;;;;;;;45.67;28.00;;;;;3.68;87.20;102092.84;5117857;27;45223;-66
2023/01/26 05:39:13;;;;;;;;;44.00;28.33;;;;;3.88;87.23;102128.13;5117094;27;45467;-64
2023/01/26 05:41:39;;;;;;;;;37.00;29.67;;;;;3.88;85.79;102124.63;5132525;27;45586;-62
2023/01/26 05:44:04;;;;;;;;;41.33;35.00;;;;;3.61;86.72;102091.78;5138339;27;46522;-63
2023/01/26 05:46:29;;;;;;;;;41.67;30.33;;;;;3.74;86.46;102122.53;5127940;27;45395;-63
2023/01/26 05:48:55;;;;;;;;;42.00;32.67;;;;;3.82;86.65;102136.66;5117966;27;45477;-63
2023/01/26 05:51:20;;;;;;;;;42.67;30.00;;;;;3.79;86.97;102127.84;5117850;27;45344;-63
2023/01/26 05:53:45;;;;;;;;;35.67;30.00;;;;;3.80;87.39;102125.28;5117823;27;46075;-64
2023/01/26 05:56:11;;;;;;;;;47.00;36.33;;;;;3.66;87.07;102109.31;5119949;27;45357;-64
2023/01/26 05:58:36;;;;;;;;;48.00;34.67;;;;;3.70;87.26;102117.19;5138530;27;45424;-63
2023/01/26 06:01:04;;;;;;;;;43.67;35.67;;;;;3.79;88.57;102130.47;5138655;27;45371;-64
2023/01/26 06:03:29;;;;;;;;;37.33;27.33;;;;;3.71;87.51;102101.59;5127794;27;46299;-64
2023/01/26 06:05:55;;;;;;;;;51.67;34.00;;;;;3.81;89.42;102119.25;5117344;27;45401;-65
2023/01/26 06:08:20;;;;;;;;;54.33;42.00;;;;;3.81;87.37;102121.84;5117707;27;45408;-64
2023/01/26 06:10:46;;;;;;;;;45.67;36.00;;;;;3.83;89.60;102132.31;5117541;27;45340;-64
2023/01/26 06:13:11;;;;;;;;;38.33;27.33;;;;;3.75;88.00;102111.28;5116332;27;46530;-64
2023/01/26 06:15:36;;;;;;;;;41.00;30.00;;;;;3.79;87.90;102128.75;5117163;27;45433;-64
2023/01/26 06:18:02;;;;;;;;;44.00;29.33;;;;;3.54;88.81;102079.44;5117607;27;45356;-64
2023/01/26 06:20:27;;;;;;;;;38.33;28.67;;;;;3.81;89.35;102137.50;5117429;27;45338;-64
2023/01/26 06:22:52;;;;;;;;;53.67;39.00;;;;;3.77;89.48;102134.75;5116974;27;46118;-64
2023/01/26 06:25:18;;;;;;;;;43.33;28.67;;;;;3.80;89.78;102130.50;5117419;27;45321;-64
2023/01/26 06:27:43;;;;;;;;;49.00;39.00;;;;;3.77;88.44;102122.59;5117342;27;45335;-63
2023/01/26 06:30:09;;;;;;;;;51.33;36.33;;;;;3.82;89.32;102122.75;5117548;27;45391;-65
2023/01/26 06:32:36;;;;;;;;;41.33;31.67;;;;;3.85;88.73;102128.06;5120516;27;47509;-65
2023/01/26 06:35:02;;;;;;;;;37.00;29.00;;;;;3.89;89.46;102137.69;5131434;27;47001;-65
2023/01/26 06:37:27;;;;;;;;;55.33;37.00;;;;;3.88;89.91;102137.66;5130888;27;45481;-65
2023/01/26 06:39:52;;;;;;;;;48.67;31.33;;;;;3.80;89.64;102120.09;5120698;27;45427;-65
2023/01/26 06:42:18;;;;;;;;;37.67;33.33;;;;;3.92;87.92;102142.09;5120611;27;46746;-65
2023/01/26 06:44:43;;;;;;;;;51.00;38.67;;;;;3.87;88.00;102139.38;5120592;27;45431;-65
2023/01/26 06:47:08;;;;;;;;;51.00;37.67;;;;;3.86;88.45;102134.13;5120533;27;45433;-66
2023/01/26 06:49:34;;;;;;;;;52.67;42.67;;;;;3.87;88.08;102133.31;5119683;27;45302;-65
2023/01/26 06:52:18;;;;;;;;;43.00;38.00;;;;;3.77;88.83;102119.13;5119889;27;45473;-65
2023/01/26 06:54:43;;;;;;;;;44.00;35.33;;;;;3.84;90.97;102148.00;5120277;27;45308;-65
2023/01/26 06:57:08;;;;;;;;;47.67;38.67;;;;;3.82;92.00;102148.81;5120531;27;45564;-65
2023/01/26 06:59:34;;;;;;;;;39.00;33.00;;;;;3.84;90.36;102145.38;5120541;27;45508;-65
2023/01/26 07:01:59;;;;;;;;;42.67;32.67;;;;;3.82;91.83;102151.41;5120144;27;45467;-65
2023/01/26 07:04:26;;;;;;;;;44.00;38.33;;;;;3.87;92.13;102160.22;5120233;27;45382;-65
2023/01/26 07:06:51;;;;;;;;;47.33;35.33;;;;;3.73;89.79;102149.44;5119247;27;45256;-65
2023/01/26 07:09:17;;;;;;;;;46.67;38.33;;;;;3.70;90.77;102151.94;5119935;27;45362;-65
2023/01/26 07:11:42;;;;;;;;;41.67;34.00;;;;;3.78;91.69;102170.41;5118655;27;45405;-65
2023/01/26 07:14:07;;;;;;;;;43.00;37.33;;;;;3.80;89.68;102171.31;5117853;27;46382;-65
2023/01/26 07:16:33;;;;;;;;;51.00;36.00;;;;;3.77;91.66;102168.63;5120009;27;45452;-65
2023/01/26 07:18:58;;;;;;;;;49.33;36.00;;;;;3.82;90.78;102177.47;5119285;27;45416;-65
2023/01/26 07:21:23;;;;;;;;;47.67;38.67;;;;;3.84;90.67;102176.66;5119079;27;45634;-65
2023/01/26 07:23:51;;;;;;;;;40.33;34.67;;;;;3.90;90.90;102175.06;5119420;27;45921;-65
2023/01/26 07:26:16;;;;;;;;;44.00;35.33;;;;;3.91;90.37;102169.91;5119934;27;45360;-65
2023/01/26 07:28:41;;;;;;;;;44.33;36.33;;;;;3.89;91.41;102176.78;5124430;27;45415;-65
2023/01/26 07:31:09;;;;;;;;;52.67;33.67;;;;;3.93;91.96;102188.19;5125665;27;46253;-64
2023/01/26 07:33:34;;;;;;;;;53.33;41.00;;;;;3.95;91.38;102184.78;5120935;27;45411;-66
2023/01/26 07:36:00;;;;;;;;;71.67;54.67;;;;;4.01;91.13;102184.06;5118346;27;45467;-65
2023/01/26 07:38:27;;;;;;;;;58.67;46.33;;;;;4.07;91.29;102197.25;5118823;27;45410;-65
2023/01/26 07:40:53;;;;;;;;;51.67;42.33;;;;;4.12;92.47;102206.06;5115338;27;46619;-65
2023/01/26 07:43:18;;;;;;;;;46.33;35.33;;;;;4.17;91.69;102207.09;5118934;27;45453;-65
2023/01/26 07:45:50;;;;;;;;;53.67;38.00;;;;;4.17;90.26;102208.84;5119857;27;45373;-65
2023/01/26 07:48:17;;;;;;;;;51.00;35.67;;;;;4.18;91.37;102210.56;5119803;27;45334;-65
2023/01/26 07:50:44;;;;;;;;;40.67;36.00;;;;;4.19;91.84;102215.84;5119345;27;45495;-65
2023/01/26 07:53:11;;;;;;;;;48.33;38.67;;;;;4.19;92.93;102201.94;5119297;27;45292;-65
2023/01/26 07:55:37;;;;;;;;;50.67;40.33;;;;;4.21;93.66;102204.56;5119344;27;45402;-65
2023/01/26 07:58:02;;;;;;;;;46.33;35.67;;;;;4.27;93.55;102205.63;5119783;27;45263;-65
2023/01/26 08:00:28;;;;;;;;;54.67;43.33;;;;;4.40;92.44;102216.38;5119142;27;46386;-65
2023/01/26 08:02:53;;;;;;;;;42.00;36.00;;;;;4.44;93.39;102220.84;5119449;27;45324;-65
2023/01/26 08:05:18;;;;;;;;;55.33;36.00;;;;;4.49;92.85;102217.50;5119505;27;45312;-65
2023/01/26 08:07:44;;;;;;;;;51.33;39.33;;;;;4.41;93.70;102202.50;5119243;27;45424;-66
2023/01/26 08:10:11;;;;;;;;;44.00;35.67;;;;;4.56;92.88;102220.25;5118985;27;45475;-65
2023/01/26 08:12:36;;;;;;;;;49.00;39.67;;;;;4.52;94.05;102209.75;5119069;27;45800;-66
2023/01/26 08:15:03;;;;;;;;;37.67;28.67;;;;;4.69;95.31;102224.94;5119147;27;45309;-65
2023/01/26 08:17:29;;;;;;;;;44.00;31.33;;;;;4.75;94.16;102221.63;5119404;27;45246;-65
2023/01/26 08:19:54;;;;;;;;;43.00;34.67;;;;;4.81;93.95;102222.66;5118806;27;46199;-66
2023/01/26 08:22:19;;;;;;;;;37.00;31.00;;;;;4.87;94.34;102225.41;5118860;27;45410;-66
2023/01/26 08:24:44;;;;;;;;;35.33;31.00;;;;;4.96;94.45;102231.72;5119113;27;45255;-66
2023/01/26 08:27:10;;;;;;;;;40.00;29.00;;;;;5.01;93.52;102230.09;5119005;27;45488;-65
2023/01/26 08:29:35;;;;;;;;;34.33;27.33;;;;;4.99;95.03;102218.75;5118652;27;45575;-65
2023/01/26 08:32:00;;;;;;;;;32.00;28.00;;;;;5.11;95.96;102239.03;5118872;27;45442;-65
2023/01/26 08:34:26;;;;;;;;;39.67;33.67;;;;;5.11;96.55;102221.66;5118880;27;45320;-65
2023/01/26 08:36:51;;;;;;;;;33.00;25.00;;;;;5.26;97.43;102239.41;5119064;27;45592;-65
2023/01/26 08:39:16;;;;;;;;;34.33;29.33;;;;;5.25;95.81;102227.19;5118544;27;46233;-65
2023/01/26 08:41:42;;;;;;;;;44.00;31.67;;;;;5.38;97.52;102233.56;5118815;27;45369;-65
2023/01/26 08:44:08;;;;;;;;;33.33;30.67;;;;;5.46;96.26;102236.34;5118690;27;45448;-65
2023/01/26 08:46:34;;;;;;;;;40.00;33.50;;;;;5.46;97.08;102225.91;5119087;27;45440;-65
2023/01/26 08:48:59;;;;;;;;;39.67;32.67;;;;;5.47;97.92;102225.94;5118516;27;45381;-66
2023/01/26 08:51:24;;;;;;;;;42.33;33.67;;;;;5.58;99.58;102240.13;5118613;27;45407;-66
2023/01/26 08:53:50;;;;;;;;;53.33;35.67;;;;;5.67;99.29;102247.28;5117874;27;45751;-66
2023/01/26 08:56:15;;;;;;;;;38.33;32.33;;;;;5.75;98.57;102260.50;5118658;27;45468;-66
2023/01/26 08:58:41;;;;;;;;;45.33;35.00;;;;;5.76;100.00;102257.03;5118609;27;45421;-66
2023/01/26 09:01:09;;;;;;;;;35.33;31.67;;;;;5.85;100.00;102246.81;5118405;27;45405;-66
2023/01/26 09:03:35;;;;;;;;;42.00;30.67;;;;;5.87;100.00;102249.47;5118250;27;45413;-66
2023/01/26 09:06:03;;;;;;;;;38.67;30.67;;;;;6.01;98.81;102265.44;5118711;27;45527;-66
2023/01/26 09:08:29;;;;;;;;;40.00;32.67;;;;;5.99;100.00;102264.53;5118114;27;46091;-67
2023/01/26 09:10:54;;;;;;;;;45.00;28.33;;;;;6.12;100.00;102268.28;5118116;27;45487;-66
2023/01/26 09:13:20;;;;;;;;;50.67;36.67;;;;;6.16;99.50;102267.47;5118309;27;45420;-66
2023/01/26 09:15:45;;;;;;;;;39.00;28.00;;;;;6.28;99.72;102270.34;5118332;27;45240;-66
2023/01/26 09:18:11;;;;;;;;;40.67;32.00;;;;;6.34;97.98;102264.38;5118202;27;46585;-66
2023/01/26 09:20:37;;;;;;;;;37.00;32.33;;;;;6.44;98.34;102268.91;5118187;27;45256;-65
2023/01/26 09:23:02;;;;;;;;;34.67;29.00;;;;;6.46;98.20;102261.97;5118374;27;45380;-66
2023/01/26 09:25:27;;;;;;;;;39.33;30.67;;;;;6.51;99.06;102273.41;5118255;27;45405;-66
2023/01/26 09:27:53;;;;;;;;;25.00;22.00;;;;;6.60;98.85;102270.09;5117881;27;45510;-66
2023/01/26 09:30:18;;;;;;;;;33.00;22.33;;;;;6.67;99.44;102266.72;5118014;27;45366;-66
2023/01/26 09:32:44;;;;;;;;;27.33;22.67;;;;;6.71;98.15;102267.66;5118169;27;45222;-65
2023/01/26 09:35:10;;;;;;;;;35.00;25.00;;;;;6.82;97.88;102258.25;5118549;27;45281;-65
2023/01/26 09:37:37;;;;;;;;;29.33;21.33;;;;;7.05;97.64;102273.47;5117790;27;46145;-66
2023/01/26 09:40:03;;;;;;;;;23.67;19.00;;;;;7.19;97.10;102281.53;5117551;27;45318;-65
2023/01/26 09:42:48;;;;;;;;;25.67;15.33;;;;;7.30;96.46;102279.97;5118068;27;45404;-65
2023/01/26 09:45:14;;;;;;;;;23.00;17.00;;;;;7.40;96.18;102286.25;5117968;27;45517;-65
2023/01/26 09:47:57;;;;;;;;;20.33;18.00;;;;;7.45;95.54;102281.94;5117225;27;46302;-65
2023/01/26 09:50:27;;;;;;;;;28.33;20.00;;;;;7.48;94.91;102284.66;5117335;27;45326;-66
2023/01/26 09:53:02;;;;;;;;;14.67;12.33;;;;;7.49;94.89;102284.66;5117916;27;45284;-65
2023/01/26 09:55:30;;;;;;;;;18.33;15.67;;;;;7.50;94.46;102282.91;5118037;27;45735;-65
2023/01/26 09:58:06;;;;;;;;;17.67;14.00;;;;;7.57;94.81;102294.38;5117611;27;45974;-65
2023/01/26 10:00:31;;;;;;;;;28.67;17.67;;;;;7.63;94.81;102297.09;5117021;27;45400;-65
2023/01/26 10:03:04;;;;;;;;;19.33;16.33;;;;;7.63;94.44;102289.22;5115960;27;45389;-65
2023/01/26 10:06:02;;;;;;;;;17.00;13.33;;;;;7.73;94.09;102300.72;5119281;27;45452;-65
2023/01/26 10:08:28;;;;;;;;;17.33;11.33;;;;;7.74;93.47;102298.13;5121028;27;45535;-65
2023/01/26 10:10:59;;;;;;;;;14.00;13.33;;;;;7.79;93.31;102303.44;5120608;27;45331;-65
2023/01/26 10:13:25;;;;;;;;;20.00;12.67;;;;;7.78;93.35;102297.28;5121112;27;45382;-65
2023/01/26 10:16:00;;;;;;;;;14.33;11.00;;;;;7.88;92.90;102306.16;5121213;27;45225;-65
2023/01/26 10:18:43;;;;;;;;;11.33;10.00;;;;;7.91;92.60;102295.72;5120935;27;47141;-65
2023/01/26 10:21:11;;;;;;;;;9.75;8.00;;;;;8.01;92.04;102300.22;5120944;27;45418;-65
2023/01/26 10:23:47;;;;;;;;;13.75;2.00;;;;;8.07;91.42;102304.66;5120947;27;45397;-66
2023/01/26 10:26:18;;;;;;;;;7.50;7.50;;;;;8.12;91.07;102302.13;5121257;27;45543;-64
2023/01/26 10:28:45;;;;;;;;;10.67;5.00;;;;;8.14;90.49;102309.13;5120787;27;45273;-64
2023/01/26 10:31:16;;;;;;;;;13.50;9.00;;;;;8.17;90.41;102311.78;5120858;27;45908;-64
2023/01/26 10:33:54;;;;;;;;;7.75;3.25;;;;;8.25;90.03;102314.53;5121056;27;45373;-64
2023/01/26 10:36:19;;;;;;;;;9.00;4.00;;;;;8.31;89.28;102314.59;5121057;27;45445;-64
2023/01/26 10:38:45;;;;;;;;;12.75;4.00;;;;;8.42;89.20;102309.44;5120292;27;46528;-64
2023/01/26 10:41:15;;;;;;;;;8.00;4.25;;;;;8.48;87.94;102311.31;5118946;27;45573;-65
2023/01/26 10:43:48;;;;;;;;;5.00;4.25;;;;;8.49;87.40;102307.81;5120636;27;45303;-63
2023/01/26 10:46:36;;;;;;;;;9.50;5.25;;;;;8.54;86.03;102309.66;5120541;27;45382;-63
2023/01/26 10:49:08;;;;;;;;;6.00;3.00;;;;;8.57;86.00;102314.06;5120287;27;46218;-63
2023/01/26 10:51:36;;;;;;;;;11.00;5.75;;;;;8.58;86.23;102317.53;5120618;27;45337;-63
2023/01/26 10:54:25;;;;;;;;;10.75;3.00;;;;;8.65;85.77;102308.88;5120309;27;45753;-63
2023/01/26 10:56:53;;;;;;;;;10.75;3.75;;;;;8.69;84.99;102319.41;5120528;27;45185;-63
2023/01/26 10:59:42;;;;;;;;;6.00;3.25;;;;;8.69;85.21;102331.69;5119905;27;45516;-65
2023/01/26 11:02:10;;;;;;;;;14.25;5.00;;;;;8.65;84.17;102324.63;5120246;27;45391;-63
2023/01/26 11:04:36;;;;;;;;;7.75;3.50;;;;;8.59;84.15;102321.94;5120436;27;45470;-63
2023/01/26 11:07:23;;;;;;;;;7.00;2.00;;;;;8.63;83.84;102322.00;5120440;27;45467;-65
2023/01/26 11:09:50;;;;;;;;;6.25;3.25;;;;;8.60;82.90;102323.72;5119665;27;47121;-63
2023/01/26 11:12:20;;;;;;;;;5.75;4.25;;;;;8.52;82.80;102310.47;5120094;27;45431;-63
2023/01/26 11:15:05;;;;;;;;;9.50;3.00;;;;;8.51;82.72;102306.97;5120290;27;45871;-62
2023/01/26 11:17:43;;;;;;;;;7.25;4.50;;;;;8.61;83.02;102310.59;5119778;27;45239;-62
2023/01/26 11:20:27;;;;;;;;;10.75;3.50;;;;;8.61;81.94;102328.97;5119757;27;47680;-64
2023/01/26 11:23:01;;;;;;;;;4.75;3.25;;;;;8.56;81.84;102321.91;5119847;27;45376;-63
2023/01/26 11:25:39;;;;;;;;;9.75;3.50;;;;;8.42;80.42;102314.69;5119803;27;45552;-65
2023/01/26 11:28:25;;;;;;;;;5.00;3.00;;;;;8.45;80.24;102306.94;5120171;27;45702;-65
2023/01/26 11:31:12;;;;;;;;;4.50;2.50;;;;;8.47;81.01;102313.06;5119679;27;45439;-65
2023/01/26 11:33:48;;;;;;;;;3.75;3.00;;;;;8.47;80.65;102307.81;5119782;27;45327;-64
2023/01/26 11:36:47;;;;;;;;;12.00;7.75;;;;;8.48;81.20;102304.34;5120014;27;45176;-63
2023/01/26 11:39:22;;;;;;;;;1.50;1.25;;;;;8.51;81.25;102298.22;5119981;27;45514;-63
2023/01/26 11:42:01;;;;;;;;;6.50;3.25;;;;;8.35;80.92;102271.78;5119560;27;45410;-65
2023/01/26 11:45:04;;;;;;;;;8.75;4.25;;;;;8.56;79.78;102312.28;5119539;27;45236;-65
2023/01/26 11:47:55;;;;;;;;;4.50;3.75;;;;;8.58;79.85;102313.16;5119933;27;45457;-66
2023/01/26 11:50:38;;;;;;;;;4.00;4.00;;;;;8.60;79.46;102302.72;5119871;27;45365;-66
2023/01/26 11:53:20;;;;;;;;;3.75;3.00;;;;;8.39;79.60;102266.56;5119607;27;45365;-63
2023/01/26 11:55:52;;;;;;;;;7.75;4.00;;;;;8.62;79.75;102306.22;5119157;27;45461;-63
2023/01/26 11:58:38;;;;;;;;;6.00;2.50;;;;;8.59;79.31;102298.31;5119551;27;45390;-62
2023/01/26 12:01:10;;;;;;;;;11.50;5.25;;;;;8.61;79.92;102305.34;5119505;27;45370;-64
2023/01/26 12:03:44;;;;;;;;;8.25;4.75;;;;;8.70;79.69;102297.56;5119281;27;46690;-64
2023/01/26 12:06:36;;;;;;;;;9.75;6.00;;;;;8.77;79.76;102306.38;5119437;27;45330;-64
2023/01/26 12:09:10;;;;;;;;;4.25;4.25;;;;;8.78;79.30;102297.63;5119171;27;45397;-64
2023/01/26 12:11:48;;;;;;;;;4.00;4.00;;;;;8.76;78.32;102299.38;5119259;27;45502;-64